createdAt,value
2022-09-23T00:00:27.051Z,5.90
2022-09-23T00:01:28.733Z,7.03
2022-09-23T00:02:32.306Z,6.38
2022-09-23T00:03:36.066Z,6.22
2022-09-23T00:04:38.841Z,6.13
2022-09-23T00:05:40.510Z,6.45
2022-09-23T00:06:44.044Z,6.55
2022-09-23T00:07:46.342Z,6.13
2022-09-23T00:08:50.133Z,6.10
2022-09-23T00:09:51.786Z,6.25
2022-09-23T00:10:55.753Z,5.90
2022-09-23T00:12:00.685Z,5.82
2022-09-23T00:13:03.287Z,5.25
2022-09-23T00:14:05.307Z,5.35
2022-09-23T00:15:11.382Z,5.30
2022-09-23T00:16:15.892Z,5.68
2022-09-23T00:17:19.156Z,4.97
2022-09-23T00:18:20.993Z,5.70
2022-09-23T00:19:23.900Z,5.85
2022-09-23T00:20:26.084Z,5.53
2022-09-23T00:21:29.385Z,5.75
2022-09-23T00:22:30.977Z,5.90
2022-09-23T00:23:34.029Z,6.00
2022-09-23T00:24:35.701Z,5.95
2022-09-23T00:25:38.313Z,5.75
2022-09-23T00:26:42.747Z,5.70
2022-09-23T00:27:45.976Z,5.00
2022-09-23T00:28:51.196Z,7.20
2022-09-23T00:29:54.382Z,5.78
2022-09-23T00:30:56.054Z,6.53
2022-09-23T00:31:59.377Z,5.40
2022-09-23T00:33:00.906Z,5.50
2022-09-23T00:34:03.509Z,5.28
2022-09-23T00:35:05.959Z,5.32
2022-09-23T00:36:15.510Z,5.28
2022-09-23T00:37:17.971Z,5.80
2022-09-23T00:38:20.719Z,5.60
2022-09-23T00:39:22.394Z,5.28
2022-09-23T00:40:26.776Z,5.25
2022-09-23T00:41:29.627Z,4.90
2022-09-23T00:42:34.222Z,4.90
2022-09-23T00:43:41.502Z,5.13
2022-09-23T00:44:53.291Z,5.22
2022-09-23T00:45:55.175Z,4.78
2022-09-23T00:46:58.409Z,5.20
2022-09-23T00:48:05.254Z,4.90
2022-09-23T00:49:12.710Z,5.07
2022-09-23T00:50:19.851Z,5.05
2022-09-23T00:51:25.222Z,5.07
2022-09-23T00:52:27.932Z,4.57
2022-09-23T00:53:30.500Z,4.30
2022-09-23T00:54:32.121Z,4.85
2022-09-23T00:55:37.697Z,4.60
2022-09-23T00:56:40.529Z,4.63
2022-09-23T00:57:45.919Z,4.30
2022-09-23T00:58:48.916Z,5.25
2022-09-23T00:59:52.981Z,4.72
2022-09-23T01:00:54.694Z,4.50
2022-09-23T01:01:59.120Z,5.20
2022-09-23T01:03:01.391Z,4.65
2022-09-23T01:04:05.390Z,4.88
2022-09-23T01:05:07.726Z,4.60
2022-09-23T01:06:11.759Z,4.28
2022-09-23T01:07:14.409Z,4.28
2022-09-23T01:08:17.631Z,4.18
2022-09-23T01:09:19.989Z,4.35
2022-09-23T01:10:23.944Z,5.05
2022-09-23T01:11:42.486Z,4.50
2022-09-23T01:13:06.794Z,4.60
2022-09-23T01:14:23.617Z,4.15
2022-09-23T01:15:31.068Z,4.63
2022-09-23T01:16:40.344Z,4.38
2022-09-23T01:17:48.607Z,4.30
2022-09-23T01:18:55.960Z,4.20
2022-09-23T01:20:31.173Z,3.88
2022-09-23T01:21:41.572Z,4.20
2022-09-23T01:22:46.676Z,4.22
2022-09-23T01:24:30.135Z,3.78
2022-09-23T01:25:48.029Z,3.70
2022-09-23T01:26:59.852Z,3.75
2022-09-23T01:28:30.073Z,4.15
2022-09-23T01:30:15.109Z,3.90
2022-09-23T01:31:26.606Z,4.03
2022-09-23T01:32:38.614Z,3.80
2022-09-23T01:33:44.987Z,3.72
2022-09-23T01:34:50.139Z,4.00
2022-09-23T01:36:08.342Z,3.90
2022-09-23T01:37:11.769Z,4.60
2022-09-23T01:38:22.193Z,4.00
2022-09-23T01:39:29.233Z,4.20
2022-09-23T01:40:39.904Z,3.88
2022-09-23T01:41:54.913Z,4.28
2022-09-23T01:43:07.665Z,4.35
2022-09-23T01:44:11.572Z,3.58
2022-09-23T01:45:19.377Z,3.45
2022-09-23T01:46:27.901Z,3.92
2022-09-23T01:47:33.305Z,4.20
2022-09-23T01:48:37.561Z,4.00
2022-09-23T01:49:45.940Z,3.67
2022-09-23T01:50:56.951Z,4.13
2022-09-23T01:52:03.400Z,4.30
2022-09-23T01:53:11.994Z,3.80
2022-09-23T01:54:19.690Z,3.65
2022-09-23T01:55:24.968Z,3.88
2022-09-23T01:56:32.493Z,3.42
2022-09-23T01:57:37.018Z,3.78
2022-09-23T01:58:42.837Z,4.07
2022-09-23T01:59:48.262Z,3.50
2022-09-23T02:00:53.388Z,4.00
2022-09-23T02:02:00.211Z,3.90
2022-09-23T02:03:08.676Z,3.53
2022-09-23T02:04:13.580Z,3.80
2022-09-23T02:05:20.498Z,4.35
2022-09-23T02:06:25.844Z,3.38
2022-09-23T02:07:33.598Z,3.70
2022-09-23T02:08:39.502Z,3.95
2022-09-23T02:09:44.351Z,3.42
2022-09-23T02:10:49.128Z,3.35
2022-09-23T02:11:53.916Z,3.97
2022-09-23T02:13:04.158Z,3.53
2022-09-23T02:14:11.679Z,3.65
2022-09-23T02:15:16.258Z,3.45
2022-09-23T02:16:27.653Z,3.20
2022-09-23T02:17:34.423Z,3.90
2022-09-23T02:18:42.943Z,4.20
2022-09-23T02:19:47.923Z,3.45
2022-09-23T02:20:51.710Z,3.95
2022-09-23T02:21:59.419Z,3.75
2022-09-23T02:23:03.934Z,3.50
2022-09-23T02:24:10.494Z,3.58
2022-09-23T02:25:12.513Z,3.58
2022-09-23T02:26:20.019Z,3.65
2022-09-23T02:27:25.973Z,4.20
2022-09-23T02:28:33.825Z,3.80
2022-09-23T02:29:44.045Z,3.53
2022-09-23T02:30:50.001Z,4.18
2022-09-23T02:31:57.307Z,5.05
2022-09-23T02:33:04.114Z,4.68
2022-09-23T02:34:15.671Z,5.10
2022-09-23T02:35:22.545Z,4.50
2022-09-23T02:36:29.586Z,3.80
2022-09-23T02:37:38.804Z,4.03
2022-09-23T02:38:44.828Z,4.32
2022-09-23T02:39:56.077Z,4.13
2022-09-23T02:40:59.997Z,4.00
2022-09-23T02:42:05.614Z,3.50
2022-09-23T02:43:12.701Z,4.15
2022-09-23T02:44:17.105Z,3.63
2022-09-23T02:45:18.674Z,3.90
2022-09-23T02:46:21.650Z,3.70
2022-09-23T02:47:25.184Z,3.40
2022-09-23T02:48:33.218Z,3.70
2022-09-23T02:49:36.493Z,3.53
2022-09-23T02:50:39.205Z,3.53
2022-09-23T02:51:40.867Z,3.70
2022-09-23T02:52:43.495Z,3.92
2022-09-23T02:53:45.881Z,3.22
2022-09-23T02:54:48.440Z,3.80
2022-09-23T02:55:50.966Z,4.35
2022-09-23T02:56:53.509Z,3.35
2022-09-23T02:57:55.068Z,4.30
2022-09-23T02:58:57.903Z,4.35
2022-09-23T02:59:59.486Z,3.28
2022-09-23T03:01:08.072Z,3.25
2022-09-23T03:02:16.881Z,3.00
2022-09-23T03:03:33.637Z,3.67
2022-09-23T03:04:39.885Z,3.50
2022-09-23T03:05:48.596Z,3.72
2022-09-23T03:06:56.754Z,4.22
2022-09-23T03:08:12.627Z,3.55
2022-09-23T03:09:20.168Z,3.92
2022-09-23T03:10:25.820Z,3.53
2022-09-23T03:11:27.539Z,3.80
2022-09-23T03:12:36.379Z,3.45
2022-09-23T03:13:47.706Z,3.13
2022-09-23T03:14:53.777Z,3.67
2022-09-23T03:16:00.469Z,3.97
2022-09-23T03:17:04.534Z,3.20
2022-09-23T03:18:12.089Z,3.42
2022-09-23T03:19:23.474Z,3.42
2022-09-23T03:20:28.314Z,3.70
2022-09-23T03:21:33.754Z,3.53
2022-09-23T03:22:39.338Z,3.53
2022-09-23T03:23:42.836Z,4.05
2022-09-23T03:24:45.728Z,3.47
2022-09-23T03:25:49.989Z,3.85
2022-09-23T03:26:52.023Z,3.97
2022-09-23T03:27:57.855Z,4.05
2022-09-23T03:29:00.244Z,4.10
2022-09-23T03:30:03.946Z,3.42
2022-09-23T03:31:06.174Z,3.50
2022-09-23T03:32:08.844Z,4.18
2022-09-23T03:33:13.057Z,4.72
2022-09-23T03:34:19.521Z,4.43
2022-09-23T03:35:23.786Z,3.72
2022-09-23T03:36:45.830Z,3.78
2022-09-23T03:37:51.847Z,4.03
2022-09-23T03:38:58.441Z,4.22
2022-09-23T03:40:05.243Z,4.15
2022-09-23T03:41:09.445Z,4.32
2022-09-23T03:42:16.945Z,4.35
2022-09-23T03:43:18.763Z,3.83
2022-09-23T03:44:21.584Z,4.38
2022-09-23T03:45:27.397Z,4.10
2022-09-23T03:46:30.286Z,3.90
2022-09-23T03:47:31.955Z,3.67
2022-09-23T03:48:34.691Z,3.70
2022-09-23T03:49:37.499Z,4.20
2022-09-23T03:50:41.698Z,4.38
2022-09-23T03:51:44.817Z,3.85
2022-09-23T03:52:47.436Z,3.88
2022-09-23T03:53:49.048Z,3.58
2022-09-23T03:54:52.101Z,3.33
2022-09-23T03:55:53.651Z,3.80
2022-09-23T03:56:58.236Z,4.10
2022-09-23T03:58:00.227Z,4.13
2022-09-23T03:59:02.796Z,4.10
2022-09-23T04:00:06.309Z,4.22
2022-09-23T04:01:08.958Z,4.07
2022-09-23T04:02:11.779Z,4.05
2022-09-23T04:03:14.409Z,4.25
2022-09-23T04:04:15.941Z,4.15
2022-09-23T04:05:18.895Z,3.78
2022-09-23T04:06:21.926Z,3.90
2022-09-23T04:07:25.534Z,4.07
2022-09-23T04:08:27.332Z,4.22
2022-09-23T04:09:29.972Z,5.22
2022-09-23T04:10:31.495Z,4.03
2022-09-23T04:11:34.064Z,4.57
2022-09-23T04:12:35.597Z,4.45
2022-09-23T04:13:38.125Z,4.10
2022-09-23T04:14:39.725Z,4.72
2022-09-23T04:15:42.283Z,4.10
2022-09-23T04:16:44.135Z,4.43
2022-09-23T04:17:46.671Z,4.38
2022-09-23T04:18:48.961Z,4.18
2022-09-23T04:19:51.475Z,4.30
2022-09-23T04:20:57.714Z,4.03
2022-09-23T04:22:01.632Z,4.00
2022-09-23T04:23:03.183Z,4.53
2022-09-23T04:24:06.186Z,4.65
2022-09-23T04:25:09.687Z,3.78
2022-09-23T04:26:11.909Z,4.30
2022-09-23T04:27:14.399Z,4.13
2022-09-23T04:28:15.967Z,4.13
2022-09-23T04:29:18.515Z,3.97
2022-09-23T04:30:20.033Z,4.10
2022-09-23T04:31:23.596Z,3.90
2022-09-23T04:32:25.199Z,4.68
2022-09-23T04:33:27.672Z,3.97
2022-09-23T04:34:29.246Z,4.97
2022-09-23T04:35:31.707Z,3.88
2022-09-23T04:36:34.253Z,3.80
2022-09-23T04:37:37.111Z,4.10
2022-09-23T04:38:39.594Z,4.05
2022-09-23T04:39:41.135Z,4.38
2022-09-23T04:40:43.756Z,4.55
2022-09-23T04:41:46.025Z,4.05
2022-09-23T04:42:50.230Z,4.03
2022-09-23T04:43:52.155Z,3.97
2022-09-23T04:44:54.617Z,4.30
2022-09-23T04:46:00.092Z,4.65
2022-09-23T04:47:02.627Z,5.30
2022-09-23T04:48:04.289Z,4.38
2022-09-23T04:49:07.229Z,4.57
2022-09-23T04:50:09.381Z,4.40
2022-09-23T04:51:13.431Z,4.43
2022-09-23T04:52:14.972Z,4.18
2022-09-23T04:53:19.042Z,4.20
2022-09-23T04:54:20.677Z,4.57
2022-09-23T04:55:23.257Z,5.13
2022-09-23T04:56:26.317Z,4.75
2022-09-23T04:57:29.782Z,4.15
2022-09-23T04:58:31.564Z,4.10
2022-09-23T04:59:34.352Z,4.93
2022-09-23T05:00:36.384Z,4.82
2022-09-23T05:01:38.977Z,4.20
2022-09-23T05:02:43.212Z,4.65
2022-09-23T05:03:47.124Z,4.57
2022-09-23T05:04:49.194Z,4.10
2022-09-23T05:05:52.295Z,4.57
2022-09-23T05:06:53.806Z,4.50
2022-09-23T05:07:56.783Z,4.07
2022-09-23T05:08:59.976Z,4.85
2022-09-23T05:10:02.562Z,5.03
2022-09-23T05:11:05.341Z,4.68
2022-09-23T05:12:08.013Z,5.20
2022-09-23T05:13:09.573Z,4.47
2022-09-23T05:14:12.918Z,4.43
2022-09-23T05:15:16.079Z,4.50
2022-09-23T05:16:19.739Z,4.93
2022-09-23T05:17:21.283Z,4.68
2022-09-23T05:18:23.919Z,4.45
2022-09-23T05:19:25.441Z,4.30
2022-09-23T05:20:28.584Z,4.63
2022-09-23T05:21:31.208Z,5.82
2022-09-23T05:22:33.677Z,4.78
2022-09-23T05:23:35.315Z,4.22
2022-09-23T05:24:39.167Z,4.53
2022-09-23T05:25:40.926Z,4.72
2022-09-23T05:26:43.719Z,4.68
2022-09-23T05:27:45.222Z,4.45
2022-09-23T05:28:47.701Z,4.55
2022-09-23T05:29:49.440Z,4.43
2022-09-23T05:30:51.994Z,4.55
2022-09-23T05:31:53.550Z,5.03
2022-09-23T05:32:56.543Z,4.40
2022-09-23T05:33:59.406Z,4.38
2022-09-23T05:35:02.509Z,4.50
2022-09-23T05:36:04.628Z,4.47
2022-09-23T05:37:07.146Z,4.60
2022-09-23T05:38:09.715Z,4.35
2022-09-23T05:39:12.566Z,4.85
2022-09-23T05:40:15.484Z,3.88
2022-09-23T05:41:19.529Z,4.47
2022-09-23T05:42:21.078Z,4.05
2022-09-23T05:43:23.721Z,4.45
2022-09-23T05:44:25.255Z,4.70
2022-09-23T05:45:27.764Z,4.43
2022-09-23T05:46:32.148Z,4.10
2022-09-23T05:47:33.690Z,3.70
2022-09-23T05:48:37.233Z,4.78
2022-09-23T05:49:58.751Z,3.83
2022-09-23T05:51:01.980Z,4.22
2022-09-23T05:52:04.530Z,4.32
2022-09-23T05:53:06.083Z,4.15
2022-09-23T05:54:08.972Z,4.63
2022-09-23T05:55:11.734Z,4.20
2022-09-23T05:56:17.119Z,4.20
2022-09-23T05:57:19.725Z,4.43
2022-09-23T05:58:23.507Z,4.70
2022-09-23T05:59:25.131Z,5.20
2022-09-23T06:00:27.722Z,4.82
2022-09-23T06:01:32.173Z,4.57
2022-09-23T06:02:34.898Z,5.20
2022-09-23T06:03:36.620Z,4.45
2022-09-23T06:04:39.219Z,4.55
2022-09-23T06:05:40.759Z,4.43
2022-09-23T06:06:43.878Z,4.45
2022-09-23T06:07:45.960Z,4.28
2022-09-23T06:08:49.095Z,4.72
2022-09-23T06:09:51.608Z,4.70
2022-09-23T06:10:54.597Z,4.03
2022-09-23T06:11:58.610Z,4.88
2022-09-23T06:13:00.129Z,4.22
2022-09-23T06:14:02.981Z,4.43
2022-09-23T06:15:06.989Z,4.65
2022-09-23T06:16:10.375Z,4.45
2022-09-23T06:17:12.972Z,4.50
2022-09-23T06:18:14.500Z,3.85
2022-09-23T06:19:16.990Z,4.50
2022-09-23T06:20:18.536Z,4.10
2022-09-23T06:21:21.198Z,3.67
2022-09-23T06:22:26.208Z,3.90
2022-09-23T06:23:27.819Z,4.07
2022-09-23T06:24:31.672Z,4.40
2022-09-23T06:25:33.853Z,3.40
2022-09-23T06:26:37.796Z,3.28
2022-09-23T06:27:41.698Z,3.75
2022-09-23T06:28:44.757Z,3.55
2022-09-23T06:29:47.278Z,3.63
2022-09-23T06:30:49.368Z,3.72
2022-09-23T06:31:51.915Z,3.85
2022-09-23T06:32:55.252Z,3.65
2022-09-23T06:34:07.633Z,4.13
2022-09-23T06:35:23.664Z,3.75
2022-09-23T06:36:40.642Z,3.55
2022-09-23T06:37:46.154Z,3.88
2022-09-23T06:38:49.233Z,3.10
2022-09-23T06:39:52.527Z,3.85
2022-09-23T06:40:55.588Z,3.40
2022-09-23T06:41:58.101Z,3.42
2022-09-23T06:43:01.741Z,3.53
2022-09-23T06:44:04.407Z,3.42
2022-09-23T06:45:06.865Z,3.35
2022-09-23T06:46:10.013Z,2.92
2022-09-23T06:47:12.784Z,3.53
2022-09-23T06:48:14.345Z,3.80
2022-09-23T06:49:16.820Z,3.42
2022-09-23T06:50:18.993Z,3.38
2022-09-23T06:51:21.730Z,3.10
2022-09-23T06:52:28.540Z,3.90
2022-09-23T06:53:32.209Z,3.50
2022-09-23T06:54:34.695Z,3.42
2022-09-23T06:55:36.310Z,3.75
2022-09-23T06:56:39.832Z,3.88
2022-09-23T06:57:41.630Z,3.38
2022-09-23T06:58:46.117Z,3.10
2022-09-23T06:59:47.755Z,3.50
2022-09-23T07:00:50.261Z,3.50
2022-09-23T07:01:51.912Z,3.70
2022-09-23T07:02:54.864Z,3.22
2022-09-23T07:03:56.561Z,3.20
2022-09-23T07:04:59.262Z,3.17
2022-09-23T07:06:01.520Z,3.10
2022-09-23T07:07:04.124Z,3.00
2022-09-23T07:08:07.299Z,3.85
2022-09-23T07:09:11.193Z,3.67
2022-09-23T07:10:12.965Z,3.35
2022-09-23T07:11:16.480Z,3.53
2022-09-23T07:12:17.988Z,3.65
2022-09-23T07:13:20.639Z,3.50
2022-09-23T07:14:25.089Z,3.55
2022-09-23T07:15:26.680Z,3.80
2022-09-23T07:16:29.294Z,3.25
2022-09-23T07:17:31.002Z,3.78
2022-09-23T07:18:37.317Z,3.50
2022-09-23T07:19:40.229Z,3.20
2022-09-23T07:20:41.786Z,3.00
2022-09-23T07:21:44.297Z,4.35
2022-09-23T07:22:49.346Z,3.55
2022-09-23T07:23:52.089Z,3.13
2022-09-23T07:24:55.985Z,3.40
2022-09-23T07:25:59.476Z,2.85
2022-09-23T07:27:02.502Z,3.40
2022-09-23T07:28:04.196Z,3.15
2022-09-23T07:29:06.717Z,3.50
2022-09-23T07:30:19.708Z,3.50
2022-09-23T07:31:37.519Z,3.47
2022-09-23T07:32:47.955Z,2.90
2022-09-23T07:33:56.833Z,3.50
2022-09-23T07:34:59.538Z,3.70
2022-09-23T07:36:04.810Z,3.17
2022-09-23T07:37:07.529Z,3.28
2022-09-23T07:38:10.069Z,3.05
2022-09-23T07:39:13.562Z,2.92
2022-09-23T07:40:16.094Z,2.63
2022-09-23T07:41:18.958Z,2.60
2022-09-23T07:42:22.568Z,2.92
2022-09-23T07:43:24.187Z,2.70
2022-09-23T07:44:27.020Z,2.78
2022-09-23T07:45:31.869Z,2.97
2022-09-23T07:46:37.201Z,2.90
2022-09-23T07:47:39.892Z,2.92
2022-09-23T07:48:42.546Z,2.53
2022-09-23T07:49:45.040Z,2.35
2022-09-23T07:50:46.578Z,2.78
2022-09-23T07:51:49.106Z,2.65
2022-09-23T07:52:52.861Z,3.10
2022-09-23T07:53:56.501Z,2.63
2022-09-23T07:54:58.087Z,2.67
2022-09-23T07:56:00.614Z,2.75
2022-09-23T07:57:03.178Z,3.15
2022-09-23T07:58:04.808Z,3.03
2022-09-23T07:59:09.348Z,2.85
2022-09-23T08:00:13.523Z,2.92
2022-09-23T08:01:16.459Z,2.47
2022-09-23T08:02:19.075Z,2.90
2022-09-23T08:03:21.057Z,2.97
2022-09-23T08:04:25.347Z,2.88
2022-09-23T08:05:26.861Z,3.00
2022-09-23T08:06:29.577Z,2.70
2022-09-23T08:07:34.271Z,2.75
2022-09-23T08:08:39.317Z,2.58
2022-09-23T08:09:43.722Z,2.88
2022-09-23T08:10:45.833Z,2.63
2022-09-23T08:11:49.354Z,2.90
2022-09-23T08:12:51.171Z,2.92
2022-09-23T08:13:56.666Z,2.83
2022-09-23T08:14:59.510Z,2.70
2022-09-23T08:16:02.524Z,3.03
2022-09-23T08:17:06.701Z,3.28
2022-09-23T08:18:08.259Z,3.03
2022-09-23T08:19:10.970Z,2.78
2022-09-23T08:20:33.050Z,2.78
2022-09-23T08:21:37.581Z,3.80
2022-09-23T08:22:39.150Z,3.00
2022-09-23T08:23:41.696Z,2.92
2022-09-23T08:24:44.297Z,2.83
2022-09-23T08:25:47.274Z,2.92
2022-09-23T08:26:51.326Z,3.10
2022-09-23T08:27:52.925Z,2.90
2022-09-23T08:28:56.438Z,3.00
2022-09-23T08:29:58.000Z,3.10
2022-09-23T08:31:01.070Z,3.30
2022-09-23T08:32:03.775Z,3.10
2022-09-23T08:33:06.709Z,3.30
2022-09-23T08:34:09.862Z,3.10
2022-09-23T08:35:11.577Z,2.72
2022-09-23T08:36:14.973Z,2.92
2022-09-23T08:37:17.823Z,2.90
2022-09-23T08:38:19.404Z,3.33
2022-09-23T08:39:23.009Z,3.70
2022-09-23T08:40:24.808Z,2.83
2022-09-23T08:41:34.744Z,2.45
2022-09-23T08:42:37.974Z,3.10
2022-09-23T08:43:43.676Z,3.28
2022-09-23T08:44:49.244Z,2.67
2022-09-23T08:45:53.525Z,2.90
2022-09-23T08:47:03.611Z,2.70
2022-09-23T08:48:13.351Z,3.33
2022-09-23T08:49:23.357Z,3.53
2022-09-23T08:50:29.234Z,3.28
2022-09-23T08:51:38.776Z,3.00
2022-09-23T08:52:45.744Z,3.13
2022-09-23T08:53:47.546Z,3.28
2022-09-23T08:54:54.655Z,3.08
2022-09-23T08:56:00.086Z,3.10
2022-09-23T08:57:02.800Z,3.58
2022-09-23T08:58:25.839Z,3.28
2022-09-23T08:59:32.870Z,2.50
2022-09-23T09:00:40.349Z,3.03
2022-09-23T09:01:45.122Z,3.28
2022-09-23T09:02:47.620Z,2.88
2022-09-23T09:03:53.673Z,2.88
2022-09-23T09:05:00.038Z,3.20
2022-09-23T09:06:01.767Z,2.92
2022-09-23T09:07:35.208Z,2.97
2022-09-23T09:08:37.813Z,2.97
2022-09-23T09:09:42.267Z,2.92
2022-09-23T09:10:46.627Z,3.15
2022-09-23T09:11:50.893Z,3.35
2022-09-23T09:13:01.549Z,3.00
2022-09-23T09:14:15.776Z,2.92
2022-09-23T09:15:20.989Z,3.20
2022-09-23T09:16:59.541Z,3.08
2022-09-23T09:18:07.532Z,3.25
2022-09-23T09:19:18.237Z,3.17
2022-09-23T09:20:26.236Z,3.42
2022-09-23T09:21:34.096Z,3.17
2022-09-23T09:22:50.952Z,3.20
2022-09-23T09:23:54.665Z,2.90
2022-09-23T09:25:03.381Z,3.10
2022-09-23T09:26:07.318Z,3.22
2022-09-23T09:27:11.216Z,3.13
2022-09-23T09:28:17.063Z,3.03
2022-09-23T09:29:34.727Z,2.85
2022-09-23T09:30:37.843Z,3.40
2022-09-23T09:31:43.007Z,3.10
2022-09-23T09:32:48.215Z,3.22
2022-09-23T09:33:57.948Z,3.10
2022-09-23T09:35:07.592Z,3.05
2022-09-23T09:36:19.085Z,3.35
2022-09-23T09:37:25.879Z,3.65
2022-09-23T09:38:27.782Z,3.00
2022-09-23T09:39:30.864Z,2.90
2022-09-23T09:40:32.993Z,3.10
2022-09-23T09:41:35.546Z,2.70
2022-09-23T09:42:40.344Z,3.03
2022-09-23T09:43:44.456Z,2.72
2022-09-23T09:44:52.489Z,3.45
2022-09-23T09:46:04.946Z,3.03
2022-09-23T09:47:18.025Z,3.10
2022-09-23T09:48:27.998Z,3.05
2022-09-23T09:49:38.108Z,2.83
2022-09-23T09:50:47.047Z,3.42
2022-09-23T09:51:48.775Z,2.70
2022-09-23T09:52:56.120Z,3.20
2022-09-23T09:54:17.065Z,2.50
2022-09-23T09:55:28.745Z,3.40
2022-09-23T09:56:33.752Z,2.72
2022-09-23T09:57:39.340Z,2.80
2022-09-23T09:58:46.201Z,2.75
2022-09-23T09:59:47.831Z,2.75
2022-09-23T10:00:52.713Z,3.25
2022-09-23T10:02:13.912Z,2.90
2022-09-23T10:03:31.394Z,2.42
2022-09-23T10:04:35.272Z,3.03
2022-09-23T10:05:52.224Z,2.25
2022-09-23T10:07:15.954Z,2.70
2022-09-23T10:08:24.515Z,2.65
2022-09-23T10:09:32.438Z,2.72
2022-09-23T10:10:34.036Z,2.20
2022-09-23T10:11:36.755Z,2.58
2022-09-23T10:12:46.045Z,2.30
2022-09-23T10:14:04.917Z,2.20
2022-09-23T10:15:31.214Z,2.40
2022-09-23T10:16:35.270Z,2.97
2022-09-23T10:17:38.988Z,2.58
2022-09-23T10:18:53.289Z,2.03
2022-09-23T10:20:00.165Z,2.30
2022-09-23T10:21:09.600Z,3.20
2022-09-23T10:22:19.637Z,2.72
2022-09-23T10:23:27.751Z,2.40
2022-09-23T10:24:32.334Z,2.60
2022-09-23T10:25:34.829Z,2.60
2022-09-23T10:26:43.297Z,1.92
2022-09-23T10:27:45.529Z,2.17
2022-09-23T10:28:50.253Z,2.15
2022-09-23T10:29:55.686Z,2.03
2022-09-23T10:31:05.598Z,2.22
2022-09-23T10:32:20.358Z,2.55
2022-09-23T10:33:26.902Z,2.40
2022-09-23T10:34:29.889Z,2.58
2022-09-23T10:35:34.291Z,2.17
2022-09-23T10:36:40.083Z,2.33
2022-09-23T10:37:48.194Z,2.55
2022-09-23T10:38:52.502Z,2.53
2022-09-23T10:40:12.632Z,2.60
2022-09-23T10:41:41.786Z,2.20
2022-09-23T10:43:15.222Z,2.67
2022-09-23T10:44:48.582Z,2.75
2022-09-23T10:46:09.046Z,2.50
2022-09-23T10:47:20.080Z,2.15
2022-09-23T10:48:28.964Z,2.15
2022-09-23T10:49:58.394Z,2.30
2022-09-23T10:51:01.046Z,2.75
2022-09-23T10:52:15.623Z,2.42
2022-09-23T10:53:24.009Z,2.47
2022-09-23T10:54:32.802Z,2.08
2022-09-23T10:55:44.111Z,2.40
2022-09-23T10:56:48.415Z,2.17
2022-09-23T10:58:05.348Z,2.40
2022-09-23T10:59:30.304Z,2.70
2022-09-23T11:00:40.817Z,2.30
2022-09-23T11:01:47.534Z,2.35
2022-09-23T11:03:18.509Z,2.70
2022-09-23T11:04:38.364Z,2.40
2022-09-23T11:05:47.422Z,1.95
2022-09-23T11:07:02.092Z,2.55
2022-09-23T11:08:23.706Z,2.30
2022-09-23T11:09:33.337Z,2.70
2022-09-23T11:10:52.890Z,2.92
2022-09-23T11:12:08.349Z,2.80
2022-09-23T11:13:20.543Z,2.55
2022-09-23T11:14:38.653Z,3.25
2022-09-23T11:15:46.162Z,3.10
2022-09-23T11:17:04.267Z,2.75
2022-09-23T11:18:34.567Z,3.30
2022-09-23T11:19:53.728Z,2.78
2022-09-23T11:21:04.742Z,2.47
2022-09-23T11:22:20.085Z,2.70
2022-09-23T11:23:58.240Z,2.70
2022-09-23T11:25:18.420Z,3.92
2022-09-23T11:26:33.266Z,3.45
2022-09-23T11:27:52.944Z,2.83
2022-09-23T11:29:10.333Z,3.05
2022-09-23T11:30:14.404Z,2.60
2022-09-23T11:31:25.490Z,2.80
2022-09-23T11:32:41.157Z,2.50
2022-09-23T11:33:56.527Z,2.60
2022-09-23T11:35:10.004Z,2.58
2022-09-23T11:36:18.960Z,2.83
2022-09-23T11:37:23.206Z,2.95
2022-09-23T11:38:30.856Z,2.90
2022-09-23T11:39:36.255Z,2.83
2022-09-23T11:40:44.128Z,2.50
2022-09-23T11:41:50.428Z,3.03
2022-09-23T11:42:58.019Z,3.25
2022-09-23T11:44:08.607Z,2.90
2022-09-23T11:45:16.972Z,3.03
2022-09-23T11:46:28.130Z,2.90
2022-09-23T11:47:39.486Z,3.47
2022-09-23T11:48:45.135Z,2.72
2022-09-23T11:49:51.253Z,3.47
2022-09-23T11:50:57.123Z,3.00
2022-09-23T11:52:06.262Z,3.22
2022-09-23T11:53:13.412Z,4.47
2022-09-23T11:54:20.840Z,3.00
2022-09-23T11:55:25.907Z,3.63
2022-09-23T11:56:36.940Z,3.40
2022-09-23T11:57:49.409Z,3.20
2022-09-23T11:59:00.008Z,2.60
2022-09-23T12:00:06.251Z,2.78
2022-09-23T12:01:11.417Z,2.75
2022-09-23T12:02:21.706Z,2.67
2022-09-23T12:03:40.837Z,2.97
2022-09-23T12:04:55.547Z,2.80
2022-09-23T12:06:02.489Z,3.13
2022-09-23T12:07:09.994Z,2.58
2022-09-23T12:08:18.930Z,3.35
2022-09-23T12:09:41.010Z,2.65
2022-09-23T12:10:52.500Z,3.50
2022-09-23T12:12:01.243Z,2.80
2022-09-23T12:13:06.452Z,3.85
2022-09-23T12:14:16.211Z,2.60
2022-09-23T12:15:26.976Z,2.50
2022-09-23T12:17:05.341Z,2.42
2022-09-23T12:18:22.852Z,2.25
2022-09-23T12:19:36.884Z,2.85
2022-09-23T12:21:01.143Z,2.67
2022-09-23T12:22:12.762Z,2.38
2022-09-23T12:23:28.491Z,2.83
2022-09-23T12:24:51.554Z,1.83
2022-09-23T12:25:56.309Z,2.40
2022-09-23T12:27:05.520Z,2.30
2022-09-23T12:28:14.767Z,2.40
2022-09-23T12:29:17.511Z,2.20
2022-09-23T12:30:21.648Z,2.03
2022-09-23T12:31:30.455Z,2.10
2022-09-23T12:32:32.423Z,2.00
2022-09-23T12:33:35.321Z,2.33
2022-09-23T12:34:41.118Z,2.38
2022-09-23T12:35:45.930Z,2.38
2022-09-23T12:36:48.777Z,2.17
2022-09-23T12:37:52.061Z,2.25
2022-09-23T12:39:00.509Z,1.85
2022-09-23T12:40:09.277Z,2.30
2022-09-23T12:41:25.967Z,2.28
2022-09-23T12:42:31.327Z,2.17
2022-09-23T12:43:36.019Z,2.22
2022-09-23T12:44:41.423Z,2.28
2022-09-23T12:45:44.133Z,2.20
2022-09-23T12:46:45.946Z,2.00
2022-09-23T12:47:48.892Z,2.28
2022-09-23T12:49:04.931Z,2.13
2022-09-23T12:50:41.188Z,2.00
2022-09-23T12:52:26.680Z,2.30
2022-09-23T12:54:14.148Z,2.63
2022-09-23T12:55:55.121Z,2.58
2022-09-23T12:57:10.882Z,2.10
2022-09-23T12:58:48.206Z,1.92
2022-09-23T12:59:57.251Z,2.22
2022-09-23T13:01:06.975Z,2.53
2022-09-23T13:02:28.427Z,2.75
2022-09-23T13:03:48.441Z,2.10
2022-09-23T13:05:14.815Z,1.92
2022-09-23T13:06:35.170Z,2.30
2022-09-23T13:07:43.831Z,2.30
2022-09-23T13:08:45.990Z,1.98
2022-09-23T13:09:50.397Z,2.30
2022-09-23T13:10:55.550Z,2.00
2022-09-23T13:12:00.233Z,2.17
2022-09-23T13:13:03.287Z,2.15
2022-09-23T13:14:07.005Z,2.10
2022-09-23T13:15:21.424Z,1.90
2022-09-23T13:16:26.528Z,1.70
2022-09-23T13:17:32.439Z,2.00
2022-09-23T13:18:59.715Z,1.98
2022-09-23T13:20:04.498Z,2.08
2022-09-23T13:21:17.656Z,1.77
2022-09-23T13:22:41.837Z,1.83
2022-09-23T13:24:20.303Z,1.90
2022-09-23T13:25:24.032Z,1.90
2022-09-23T13:26:26.570Z,2.20
2022-09-23T13:27:30.963Z,2.13
2022-09-23T13:28:36.784Z,2.13
2022-09-23T13:29:42.309Z,1.70
2022-09-23T13:30:52.234Z,1.90
2022-09-23T13:31:57.543Z,1.73
2022-09-23T13:33:06.664Z,1.38
2022-09-23T13:34:13.103Z,1.73
2022-09-23T13:35:18.158Z,1.83
2022-09-23T13:36:21.236Z,1.75
2022-09-23T13:37:24.447Z,1.73
2022-09-23T13:38:29.683Z,2.13
2022-09-23T13:39:31.257Z,1.77
2022-09-23T13:40:34.635Z,1.80
2022-09-23T13:41:37.253Z,1.95
2022-09-23T13:42:40.644Z,2.10
2022-09-23T13:43:45.315Z,1.73
2022-09-23T13:44:47.063Z,2.03
2022-09-23T13:45:51.065Z,2.05
2022-09-23T13:46:56.238Z,1.83
2022-09-23T13:48:02.695Z,1.70
2022-09-23T13:49:04.458Z,2.08
2022-09-23T13:50:07.839Z,1.50
2022-09-23T13:51:12.523Z,1.80
2022-09-23T13:52:24.879Z,1.80
2022-09-23T13:53:30.047Z,1.60
2022-09-23T13:54:33.422Z,1.50
2022-09-23T13:55:38.771Z,1.70
2022-09-23T13:56:49.987Z,2.00
2022-09-23T13:57:58.732Z,1.85
2022-09-23T13:59:17.211Z,2.05
2022-09-23T14:00:20.972Z,1.67
2022-09-23T14:01:31.272Z,1.85
2022-09-23T14:02:32.921Z,1.70
2022-09-23T14:03:37.550Z,1.55
2022-09-23T14:04:39.194Z,1.70
2022-09-23T14:05:42.065Z,2.17
2022-09-23T14:06:44.961Z,1.60
2022-09-23T14:07:46.731Z,2.20
2022-09-23T14:08:51.084Z,1.55
2022-09-23T14:09:54.843Z,1.80
2022-09-23T14:10:57.648Z,1.75
2022-09-23T14:12:02.053Z,1.70
2022-09-23T14:13:03.677Z,1.85
2022-09-23T14:14:07.065Z,2.28
2022-09-23T14:15:13.786Z,1.73
2022-09-23T14:16:17.276Z,1.50
2022-09-23T14:17:22.851Z,1.70
2022-09-23T14:18:30.125Z,1.50
2022-09-23T14:19:32.890Z,1.58
2022-09-23T14:20:45.210Z,1.90
2022-09-23T14:21:50.606Z,1.90
2022-09-23T14:23:04.899Z,1.50
2022-09-23T14:24:14.541Z,2.00
2022-09-23T14:25:17.680Z,1.90
2022-09-23T14:26:20.307Z,1.50
2022-09-23T14:27:28.351Z,1.73
2022-09-23T14:28:30.916Z,1.60
2022-09-23T14:29:34.523Z,1.63
2022-09-23T14:30:38.618Z,1.70
2022-09-23T14:31:40.594Z,1.70
2022-09-23T14:32:45.318Z,1.88
2022-09-23T14:33:46.891Z,1.60
2022-09-23T14:34:51.632Z,1.75
2022-09-23T14:35:55.776Z,1.30
2022-09-23T14:37:16.131Z,1.95
2022-09-23T14:38:42.068Z,2.13
2022-09-23T14:39:44.565Z,1.83
2022-09-23T14:40:51.258Z,1.45
2022-09-23T14:41:54.257Z,1.45
2022-09-23T14:42:59.032Z,1.52
2022-09-23T14:44:03.010Z,1.80
2022-09-23T14:45:05.794Z,2.05
2022-09-23T14:46:16.184Z,3.22
2022-09-23T14:47:18.789Z,1.58